Time;durP1;ratioP1;P1;durP2;ratioP2;P2;SDS_P1;SDS_P2;PMS_P1;PMS_P2;Temp;Humidity;BMP_temperature;BMP_pressure;BME280_temperature;BME280_humidity;BME280_pressure;Samples;Min_cycle;Max_cycle;Signal;HPM_P1;HPM_P2
2022/10/05 00:00:57;;;;;;;7.45;4.30;;;12.70;99.90;;;;;;5027118;28;20030;-74
2022/10/05 00:03:26;;;;;;;6.15;3.45;;;12.70;99.90;;;;;;5029632;28;20038;-74
2022/10/05 00:05:52;;;;;;;6.93;3.65;;;12.70;99.90;;;;;;5030478;28;20018;-74
2022/10/05 00:08:23;;;;;;;5.80;3.70;;;12.80;99.90;;;;;;5028072;28;20116;-74
2022/10/05 00:10:50;;;;;;;9.20;3.75;;;12.70;99.90;;;;;;5026310;28;20044;-74
2022/10/05 00:13:29;;;;;;;6.15;4.35;;;12.60;99.90;;;;;;5026412;28;20124;-74
2022/10/05 00:16:19;;;;;;;5.63;3.92;;;12.50;99.90;;;;;;5029869;28;20037;-74
2022/10/05 00:18:50;;;;;;;6.68;3.72;;;12.60;99.90;;;;;;5028301;28;20038;-74
2022/10/05 00:21:22;;;;;;;5.72;3.40;;;12.70;99.90;;;;;;5028667;28;20383;-74
2022/10/05 00:23:48;;;;;;;5.57;3.25;;;12.70;99.90;;;;;;5027909;28;20025;-74
2022/10/05 00:26:21;;;;;;;8.10;2.70;;;12.80;99.90;;;;;;5027040;28;20032;-74
2022/10/05 00:28:47;;;;;;;5.57;2.70;;;13.00;99.90;;;;;;5031977;28;20487;-74
2022/10/05 00:31:25;;;;;;;4.82;2.63;;;13.10;99.90;;;;;;5027012;28;20517;-74
2022/10/05 00:33:51;;;;;;;5.07;2.72;;;13.10;99.90;;;;;;5029703;28;20063;-74
2022/10/05 00:36:17;;;;;;;5.20;2.88;;;13.00;99.90;;;;;;5027800;28;20037;-74
2022/10/05 00:38:43;;;;;;;4.65;2.60;;;13.00;99.90;;;;;;5027982;28;20025;-74
2022/10/05 00:41:23;;;;;;;6.43;2.70;;;13.10;99.90;;;;;;5026025;28;20044;-74
2022/10/05 00:44:14;;;;;;;4.53;2.92;;;13.20;99.90;;;;;;5032070;28;20072;-74
2022/10/05 00:46:52;;;;;;;5.20;3.33;;;12.90;99.90;;;;;;5036140;28;20033;-74
2022/10/05 00:49:36;;;;;;;9.20;3.50;;;12.80;99.90;;;;;;5029780;28;20033;-74
2022/10/05 00:52:37;;;;;;;5.32;3.08;;;12.90;99.90;;;;;;5031001;28;20033;-74
2022/10/05 00:55:14;;;;;;;6.28;3.03;;;12.90;99.90;;;;;;5031093;28;20492;-74
2022/10/05 00:57:50;;;;;;;7.47;3.13;;;12.80;99.90;;;;;;5037075;28;20021;-74
2022/10/05 01:00:19;;;;;;;5.75;3.00;;;12.90;99.90;;;;;;5029976;28;20075;-74
2022/10/05 01:03:12;;;;;;;5.47;3.13;;;12.90;99.90;;;;;;5032288;28;20510;-74
2022/10/05 01:05:52;;;;;;;7.65;3.05;;;12.80;99.90;;;;;;5031424;28;20111;-74
2022/10/05 01:08:29;;;;;;;7.38;2.63;;;12.70;99.90;;;;;;5029703;28;20041;-74
2022/10/05 01:11:29;;;;;;;5.57;3.47;;;12.80;99.90;;;;;;5031359;28;20112;-74
2022/10/05 01:13:58;;;;;;;4.80;2.60;;;12.80;99.90;;;;;;5036206;28;20051;-74
2022/10/05 01:16:34;;;;;;;8.68;3.28;;;12.80;99.90;;;;;;5029947;28;20064;-73
2022/10/05 01:19:40;;;;;;;4.38;2.72;;;12.70;99.90;;;;;;5031734;28;20032;-74
2022/10/05 01:22:40;;;;;;;4.85;2.53;;;12.90;99.90;;;;;;5029748;28;20029;-74
2022/10/05 01:25:37;;;;;;;4.15;2.50;;;12.80;99.90;;;;;;5033819;28;20049;-74
2022/10/05 01:28:22;;;;;;;5.00;2.47;;;12.90;99.90;;;;;;5034051;28;20029;-74
2022/10/05 01:31:13;;;;;;;4.70;2.33;;;12.90;99.90;;;;;;5032607;28;20051;-74
2022/10/05 01:33:51;;;;;;;6.00;2.90;;;12.70;99.90;;;;;;5029824;28;20060;-74
2022/10/05 01:36:33;;;;;;;4.50;2.47;;;12.70;99.90;;;;;;5032260;28;20067;-74
2022/10/05 01:39:11;;;;;;;5.15;2.15;;;12.80;99.90;;;;;;5030753;28;20029;-74
2022/10/05 01:42:02;;;;;;;5.68;2.50;;;12.80;99.90;;;;;;5029456;28;20095;-74
2022/10/05 01:44:40;;;;;;;4.05;2.08;;;12.90;99.90;;;;;;5029650;28;20036;-74
2022/10/05 01:47:14;;;;;;;5.10;2.20;;;13.00;99.90;;;;;;5030769;28;20032;-74
2022/10/05 01:49:55;;;;;;;;;;;12.90;99.90;;;;;;5030534;28;20075;-74
2022/10/05 01:52:42;;;;;;;7.07;2.25;;;12.80;99.90;;;;;;5038061;28;20372;-74
2022/10/05 01:55:36;;;;;;;4.20;2.30;;;12.70;99.90;;;;;;5031112;28;20037;-74
2022/10/05 01:58:23;;;;;;;4.55;2.40;;;12.70;99.90;;;;;;5028579;28;20053;-74
2022/10/05 02:01:06;;;;;;;4.22;2.15;;;12.70;99.90;;;;;;5029993;28;20196;-74
2022/10/05 02:03:54;;;;;;;4.40;1.92;;;12.70;99.90;;;;;;5028666;28;20029;-74
2022/10/05 02:06:23;;;;;;;5.22;2.70;;;12.50;99.90;;;;;;5031511;28;20040;-74
2022/10/05 02:09:21;;;;;;;5.82;2.33;;;12.50;99.90;;;;;;5031703;28;20033;-74
2022/10/05 02:11:55;;;;;;;5.50;2.45;;;12.30;99.90;;;;;;5027819;28;20060;-74
2022/10/05 02:14:31;;;;;;;4.63;2.15;;;12.30;99.90;;;;;;5028420;28;20032;-74
2022/10/05 02:17:00;;;;;;;4.53;2.22;;;12.20;99.90;;;;;;5028842;28;20483;-74
2022/10/05 02:19:41;;;;;;;5.15;2.13;;;12.30;99.90;;;;;;5030769;28;20025;-74
2022/10/05 02:22:12;;;;;;;3.63;1.83;;;12.40;99.90;;;;;;5029288;28;20409;-74
2022/10/05 02:24:43;;;;;;;5.85;2.30;;;12.40;99.90;;;;;;5030317;28;20026;-74
2022/10/05 02:27:13;;;;;;;5.10;1.95;;;12.40;99.90;;;;;;5029877;28;20033;-74
2022/10/05 02:29:44;;;;;;;3.75;2.03;;;12.40;99.90;;;;;;5027694;28;20025;-74
2022/10/05 02:32:16;;;;;;;4.40;2.08;;;12.50;99.90;;;;;;5032200;28;20025;-74
2022/10/05 02:34:42;;;;;;;3.78;2.03;;;12.40;99.90;;;;;;5027882;28;20029;-74
2022/10/05 02:37:27;;;;;;;6.28;2.42;;;12.30;99.90;;;;;;5039855;28;20025;-74
2022/10/05 02:40:17;;;;;;;3.92;1.83;;;12.40;99.90;;;;;;5031412;28;20033;-74
2022/10/05 02:43:05;;;;;;;4.97;2.20;;;12.50;99.90;;;;;;5028291;28;20087;-74
2022/10/05 02:45:57;;;;;;;8.40;2.28;;;12.50;99.90;;;;;;5029423;28;20530;-74
2022/10/05 02:48:46;;;;;;;6.00;2.30;;;12.40;99.90;;;;;;5029197;28;20030;-74
2022/10/05 02:51:20;;;;;;;8.68;1.80;;;12.40;99.90;;;;;;5026794;28;20037;-74
2022/10/05 02:54:02;;;;;;;5.57;2.20;;;12.30;99.90;;;;;;5029071;28;20025;-74
2022/10/05 02:56:28;;;;;;;5.90;2.28;;;12.30;99.90;;;;;;5030042;28;20098;-74
2022/10/05 02:58:59;;;;;;;4.80;2.42;;;12.20;99.90;;;;;;5028469;28;20172;-74
2022/10/05 03:01:44;;;;;;;4.32;2.30;;;12.20;99.90;;;;;;5029107;28;20061;-72
2022/10/05 03:04:38;;;;;;;4.72;2.00;;;12.30;99.90;;;;;;5023846;28;20032;-72
2022/10/05 03:07:31;;;;;;;4.07;2.13;;;12.30;99.90;;;;;;5024066;28;20021;-73
2022/10/05 03:10:02;;;;;;;8.40;2.20;;;12.40;99.90;;;;;;5021679;28;20025;-72
2022/10/05 03:12:50;;;;;;;4.90;2.38;;;12.20;99.90;;;;;;5027029;28;20507;-72
2022/10/05 03:15:37;;;;;;;4.28;2.33;;;12.20;99.90;;;;;;5021944;28;20029;-73
2022/10/05 03:18:06;;;;;;;3.47;1.80;;;12.30;99.90;;;;;;5020871;28;20419;-73
2022/10/05 03:20:53;;;;;;;4.32;2.22;;;12.20;99.90;;;;;;5023461;28;20125;-73
2022/10/05 03:24:10;;;;;;;3.92;2.13;;;12.40;99.90;;;;;;5025591;28;20064;-72
2022/10/05 03:26:51;;;;;;;4.70;2.30;;;12.30;99.90;;;;;;5030753;28;20630;-72
2022/10/05 03:29:17;;;;;;;4.90;1.92;;;12.30;99.90;;;;;;5023181;28;20045;-72
2022/10/05 03:31:59;;;;;;;6.00;2.65;;;12.40;99.90;;;;;;5027353;28;20388;-72
2022/10/05 03:35:00;;;;;;;3.90;2.08;;;12.40;99.90;;;;;;5024485;28;20100;-73
2022/10/05 03:38:00;;;;;;;4.65;2.10;;;12.30;99.90;;;;;;5025149;28;20045;-72
2022/10/05 03:40:44;;;;;;;5.18;2.00;;;12.20;99.90;;;;;;5022479;28;20109;-72
2022/10/05 03:43:34;;;;;;;4.03;1.98;;;12.10;99.90;;;;;;5022813;28;20140;-72
2022/10/05 03:46:29;;;;;;;3.00;1.65;;;12.00;99.90;;;;;;5028039;28;20087;-72
2022/10/05 03:49:15;;;;;;;3.08;1.83;;;11.90;99.90;;;;;;5021179;28;20029;-73
2022/10/05 03:51:50;;;;;;;6.95;1.90;;;12.20;99.90;;;;;;5031053;28;20120;-72
2022/10/05 03:54:21;;;;;;;4.47;2.17;;;12.10;99.90;;;;;;5023428;28;20033;-72
2022/10/05 03:56:56;;;;;;;6.30;1.95;;;12.10;99.90;;;;;;5023782;28;20033;-72
2022/10/05 03:59:24;;;;;;;;;;;12.10;99.90;;;;;;5025405;28;20037;-72
2022/10/05 04:01:55;;;;;;;4.22;2.13;;;12.10;99.90;;;;;;5026972;28;20579;-72
2022/10/05 04:04:48;;;;;;;3.58;1.98;;;11.80;99.90;;;;;;5024230;28;20060;-72
2022/10/05 04:07:52;;;;;;;5.05;2.15;;;11.90;99.90;;;;;;5025862;28;20033;-73
2022/10/05 04:10:47;;;;;;;3.90;2.20;;;11.90;99.90;;;;;;5019192;28;20534;-72
2022/10/05 04:13:20;;;;;;;5.38;2.28;;;12.00;99.90;;;;;;5022577;28;20049;-72
2022/10/05 04:16:08;;;;;;;5.28;1.98;;;11.90;99.90;;;;;;5023750;28;20419;-72
2022/10/05 04:18:42;;;;;;;5.78;2.28;;;11.90;99.90;;;;;;5026239;28;20033;-73
2022/10/05 04:21:19;;;;;;;4.50;2.35;;;11.90;99.90;;;;;;5024963;28;20067;-72
2022/10/05 04:24:14;;;;;;;5.72;2.80;;;11.90;99.90;;;;;;5027941;28;20056;-72
2022/10/05 04:26:52;;;;;;;6.72;2.53;;;11.80;99.90;;;;;;5025745;28;20163;-73
2022/10/05 04:29:36;;;;;;;4.50;2.20;;;11.80;99.90;;;;;;5029243;28;20033;-72
2022/10/05 04:32:07;;;;;;;6.88;3.15;;;11.80;99.90;;;;;;5029268;28;20025;-72
2022/10/05 04:34:52;;;;;;;4.38;2.30;;;11.70;99.90;;;;;;5025955;28;20031;-72
2022/10/05 04:37:39;;;;;;;9.27;2.47;;;11.70;99.90;;;;;;5027744;28;20021;-73
2022/10/05 04:40:24;;;;;;;5.47;2.67;;;11.40;99.90;;;;;;5028649;28;20033;-73
2022/10/05 04:43:07;;;;;;;4.00;1.95;;;11.50;99.90;;;;;;5027655;28;20029;-73
2022/10/05 04:45:59;;;;;;;4.93;1.92;;;11.60;99.90;;;;;;5026287;28;20069;-73
2022/10/05 04:48:51;;;;;;;3.33;1.92;;;11.40;99.90;;;;;;5033123;28;20045;-72
2022/10/05 04:51:26;;;;;;;3.85;1.98;;;11.30;99.90;;;;;;5025423;28;20689;-72
2022/10/05 04:54:16;;;;;;;5.35;2.20;;;11.30;99.90;;;;;;5033896;28;20036;-72
2022/10/05 04:56:52;;;;;;;3.67;1.95;;;11.30;99.90;;;;;;5034339;28;20554;-72
2022/10/05 04:59:49;;;;;;;4.85;2.53;;;11.30;99.90;;;;;;5033017;28;20036;-72
2022/10/05 05:02:42;;;;;;;5.43;2.38;;;11.40;99.90;;;;;;5027559;28;20057;-72
2022/10/05 05:05:23;;;;;;;4.00;2.08;;;11.30;99.90;;;;;;5031905;28;20029;-72
2022/10/05 05:08:01;;;;;;;4.90;2.22;;;11.30;99.90;;;;;;5026179;28;20483;-72
2022/10/05 05:11:08;;;;;;;5.65;1.83;;;11.40;99.90;;;;;;5030113;28;20044;-72
2022/10/05 05:13:55;;;;;;;4.10;2.40;;;11.10;99.90;;;;;;5026880;28;20053;-72
2022/10/05 05:16:32;;;;;;;3.88;2.35;;;11.10;99.90;;;;;;5028889;28;20115;-72
2022/10/05 05:19:36;;;;;;;5.18;2.20;;;11.10;99.90;;;;;;5031703;28;20357;-72
2022/10/05 05:22:43;;;;;;;5.57;2.70;;;11.00;99.90;;;;;;5026361;28;20026;-72
2022/10/05 05:25:16;;;;;;;5.40;2.05;;;11.10;99.90;;;;;;5026158;28;20041;-72
2022/10/05 05:28:07;;;;;;;5.22;2.47;;;11.00;99.90;;;;;;5026710;28;20032;-72
2022/10/05 05:30:43;;;;;;;4.32;2.08;;;11.10;99.90;;;;;;5040191;28;20045;-72
2022/10/05 05:33:24;;;;;;;4.68;2.45;;;11.20;99.90;;;;;;5025774;28;20080;-70
2022/10/05 05:36:08;;;;;;;3.95;1.90;;;11.20;99.90;;;;;;5024392;28;20033;-72
2022/10/05 05:38:55;;;;;;;4.63;2.27;;;11.10;99.90;;;;;;5023412;28;20035;-71
2022/10/05 05:41:38;;;;;;;4.20;2.25;;;10.90;99.90;;;;;;5023040;28;20029;-74
2022/10/05 05:44:38;;;;;;;4.07;2.00;;;10.90;99.90;;;;;;5024596;28;20033;-72
2022/10/05 05:47:34;;;;;;;4.68;2.40;;;10.80;99.90;;;;;;5026749;28;20037;-72
2022/10/05 05:50:09;;;;;;;4.43;2.08;;;10.70;99.90;;;;;;5022138;28;20073;-72
2022/10/05 05:52:43;;;;;;;3.60;2.08;;;10.80;99.90;;;;;;5022567;28;20029;-72
2022/10/05 05:55:12;;;;;;;;;;;10.80;99.90;;;;;;5024309;28;20108;-72
2022/10/05 05:57:42;;;;;;;4.07;2.50;;;10.90;99.90;;;;;;5024725;28;19909;-72
2022/10/05 06:00:13;;;;;;;6.38;2.17;;;10.80;99.90;;;;;;5028667;28;20029;-72
2022/10/05 06:02:46;;;;;;;4.28;1.90;;;10.90;99.90;;;;;;5022810;28;20041;-72
2022/10/05 06:05:45;;;;;;;4.43;2.25;;;10.90;99.90;;;;;;5023643;28;20021;-71
2022/10/05 06:08:38;;;;;;;4.25;2.20;;;10.80;99.90;;;;;;5025280;28;20126;-72
2022/10/05 06:11:03;;;;;;;5.38;2.75;;;10.80;99.90;;;;;;5023474;28;20029;-72
2022/10/05 06:13:34;;;;;;;5.68;2.40;;;11.00;99.90;;;;;;5024519;28;20048;-71
2022/10/05 06:16:11;;;;;;;4.40;2.55;;;11.00;99.90;;;;;;5028015;28;20472;-72
2022/10/05 06:18:42;;;;;;;6.65;2.70;;;11.00;99.90;;;;;;5026526;28;20033;-72
2022/10/05 06:21:26;;;;;;;6.20;2.45;;;11.10;99.90;;;;;;5028632;28;20056;-72
2022/10/05 06:24:17;;;;;;;6.28;2.83;;;10.90;99.90;;;;;;5022550;28;20029;-74
2022/10/05 06:27:16;;;;;;;4.78;2.92;;;10.90;99.90;;;;;;5024346;28;20029;-74
2022/10/05 06:30:27;;;;;;;5.03;2.80;;;10.90;99.90;;;;;;5021000;28;20117;-74
2022/10/05 06:33:33;;;;;;;4.85;2.20;;;11.00;99.90;;;;;;5028153;28;20048;-74
2022/10/05 06:36:11;;;;;;;4.85;2.85;;;11.10;99.90;;;;;;5026633;28;20037;-74
2022/10/05 06:38:54;;;;;;;6.63;2.80;;;11.10;99.90;;;;;;5022336;28;20120;-76
2022/10/05 06:41:49;;;;;;;3.75;2.10;;;11.20;99.90;;;;;;5024472;28;20036;-76
2022/10/05 06:44:42;;;;;;;4.28;2.67;;;11.20;99.90;;;;;;5023384;28;20621;-76
2022/10/05 06:47:25;;;;;;;3.97;2.15;;;11.20;99.90;;;;;;5031720;28;20024;-76
2022/10/05 06:50:03;;;;;;;8.18;2.55;;;11.10;99.90;;;;;;5023405;28;20032;-76
2022/10/05 06:52:34;;;;;;;5.78;2.38;;;11.20;99.90;;;;;;5029267;28;20116;-76
2022/10/05 06:55:22;;;;;;;5.03;2.78;;;11.10;99.90;;;;;;5027694;28;20383;-76
2022/10/05 06:58:21;;;;;;;3.92;2.10;;;11.00;99.90;;;;;;5024945;28;20716;-76
2022/10/05 07:00:58;;;;;;;6.78;2.33;;;11.10;99.90;;;;;;5023759;28;20110;-76
2022/10/05 07:04:14;;;;;;;5.13;2.60;;;11.20;99.90;;;;;;5023693;28;20072;-76
2022/10/05 07:06:53;;;;;;;4.22;2.15;;;11.30;99.90;;;;;;5038562;28;20028;-76
2022/10/05 07:09:44;;;;;;;5.15;2.38;;;11.50;99.90;;;;;;5025890;28;20423;-76
2022/10/05 07:12:46;;;;;;;5.28;3.10;;;11.50;99.90;;;;;;5023240;28;20045;-76
2022/10/05 07:15:40;;;;;;;5.40;2.95;;;11.40;99.90;;;;;;5027706;28;20034;-74
2022/10/05 07:18:09;;;;;;;5.05;2.95;;;11.30;99.90;;;;;;5031895;28;20032;-73
2022/10/05 07:20:46;;;;;;;6.35;3.13;;;11.40;99.90;;;;;;5025687;28;20041;-76
2022/10/05 07:23:33;;;;;;;5.10;3.08;;;11.40;99.90;;;;;;5022441;28;20017;-76
2022/10/05 07:26:02;;;;;;;7.97;3.13;;;11.40;99.90;;;;;;5021799;28;20495;-76
2022/10/05 07:29:06;;;;;;;6.32;3.25;;;11.40;99.90;;;;;;5021260;28;20083;-75
2022/10/05 07:31:59;;;;;;;7.35;2.45;;;11.50;99.90;;;;;;5028533;28;20125;-76
2022/10/05 07:34:59;;;;;;;4.30;2.13;;;11.50;99.90;;;;;;5020282;28;20041;-75
2022/10/05 07:40:56;;;;;;;4.35;2.30;;;11.60;99.90;;;;;;5020750;28;20638;-75
2022/10/05 07:43:45;;;;;;;4.20;2.10;;;11.60;99.90;;;;;;5027460;28;20053;-75
2022/10/05 07:46:21;;;;;;;4.20;2.28;;;11.70;99.90;;;;;;5020395;28;20112;-75
2022/10/05 07:48:52;;;;;;;4.30;2.08;;;11.70;99.90;;;;;;5022113;28;20029;-75
2022/10/05 07:51:29;;;;;;;5.68;1.98;;;11.80;99.90;;;;;;5027340;28;20091;-75
2022/10/05 07:54:03;;;;;;;4.63;2.20;;;11.80;99.90;;;;;;5028646;28;20079;-75
2022/10/05 07:56:35;;;;;;;6.57;2.67;;;11.90;99.90;;;;;;5031283;28;20033;-75
2022/10/05 07:59:24;;;;;;;5.75;2.78;;;11.90;99.90;;;;;;5024899;28;20487;-76
2022/10/05 08:01:58;;;;;;;7.13;2.05;;;12.00;99.90;;;;;;5028782;28;20487;-76
2022/10/05 08:04:30;;;;;;;5.75;2.30;;;12.10;99.90;;;;;;5028647;28;20861;-75
2022/10/05 08:07:02;;;;;;;4.35;2.25;;;12.20;99.90;;;;;;5026124;28;20021;-76
2022/10/05 08:09:49;;;;;;;4.47;2.00;;;12.20;99.90;;;;;;5027256;28;20419;-76
2022/10/05 08:12:18;;;;;;;4.00;2.08;;;12.20;99.90;;;;;;5027705;28;20049;-76
2022/10/05 08:15:02;;;;;;;6.07;2.30;;;12.20;99.90;;;;;;5024715;28;20091;-75
2022/10/05 08:17:40;;;;;;;5.68;2.10;;;12.30;99.90;;;;;;5022880;28;20025;-76
2022/10/05 08:20:43;;;;;;;4.65;2.05;;;12.40;99.90;;;;;;5023755;28;20541;-75
2022/10/05 08:23:14;;;;;;;5.80;1.90;;;12.40;99.90;;;;;;5024690;28;20111;-76
2022/10/05 08:26:05;;;;;;;7.47;2.22;;;12.50;99.90;;;;;;5032596;28;20047;-75
2022/10/05 08:28:57;;;;;;;3.80;1.83;;;12.50;99.90;;;;;;5023774;28;20033;-76
2022/10/05 08:31:27;;;;;;;5.10;2.25;;;12.60;99.90;;;;;;5024090;28;20040;-76
2022/10/05 08:34:21;;;;;;;6.07;2.10;;;12.60;99.90;;;;;;5023280;28;20083;-75
2022/10/05 08:37:31;;;;;;;40.00;13.27;;;12.60;99.90;;;;;;5024364;28;20034;-76
2022/10/05 08:39:59;;;;;;;20.33;6.22;;;12.70;99.90;;;;;;5023814;28;20038;-76
2022/10/05 08:42:49;;;;;;;18.85;5.50;;;12.80;99.90;;;;;;5024533;28;20140;-76
2022/10/05 08:45:15;;;;;;;5.70;2.40;;;13.00;99.90;;;;;;5031085;28;20720;-76
2022/10/05 08:47:59;;;;;;;3.65;2.10;;;13.00;99.90;;;;;;5026911;28;20032;-76
2022/10/05 08:50:46;;;;;;;3.95;2.10;;;13.00;99.90;;;;;;5024677;28;20116;-76
2022/10/05 08:53:40;;;;;;;12.63;4.60;;;13.10;99.90;;;;;;5024265;28;20032;-76
2022/10/05 08:56:24;;;;;;;9.00;3.23;;;13.30;99.90;;;;;;5023447;28;20124;-76
2022/10/05 08:59:24;;;;;;;5.97;2.45;;;13.30;99.90;;;;;;5025519;28;20273;-76
2022/10/05 09:02:24;;;;;;;5.70;1.75;;;13.30;99.90;;;;;;5022744;28;20057;-76
2022/10/05 09:05:14;;;;;;;4.30;2.10;;;13.30;99.90;;;;;;5023089;28;20032;-76
2022/10/05 09:08:13;;;;;;;4.10;1.73;;;13.50;99.90;;;;;;5023918;28;20108;-76
2022/10/05 09:11:05;;;;;;;3.80;2.10;;;13.70;99.90;;;;;;5023950;28;20041;-76
2022/10/05 09:14:06;;;;;;;5.93;2.13;;;13.90;99.90;;;;;;5022671;28;20056;-76
2022/10/05 09:17:00;;;;;;;11.38;2.72;;;13.80;99.90;;;;;;5022403;28;20061;-76
2022/10/05 09:20:15;;;;;;;6.85;2.33;;;13.70;99.90;;;;;;5023274;28;20072;-76
2022/10/05 09:22:46;;;;;;;3.08;1.50;;;14.00;99.90;;;;;;5025884;28;20044;-75
2022/10/05 09:25:17;;;;;;;4.85;2.42;;;14.00;99.90;;;;;;5024404;28;20617;-76
2022/10/05 09:27:53;;;;;;;3.88;2.05;;;14.00;99.90;;;;;;5023444;28;20053;-76
2022/10/05 09:30:32;;;;;;;4.38;2.13;;;14.10;99.90;;;;;;5040947;28;20078;-75
2022/10/05 09:33:24;;;;;;;3.92;2.22;;;14.20;99.90;;;;;;5029812;28;20037;-77
2022/10/05 09:36:07;;;;;;;4.05;1.75;;;14.30;99.90;;;;;;5032941;28;20029;-76
2022/10/05 09:39:15;;;;;;;5.55;2.38;;;14.40;99.90;;;;;;5025281;28;20044;-76
2022/10/05 09:41:49;;;;;;;7.45;2.33;;;14.40;99.90;;;;;;5025992;28;20071;-76
2022/10/05 09:44:51;;;;;;;4.22;2.10;;;14.60;99.90;;;;;;5028405;28;20616;-76
2022/10/05 09:47:34;;;;;;;3.20;1.80;;;14.70;99.90;;;;;;5030873;28;20099;-76
2022/10/05 09:50:22;;;;;;;6.43;2.33;;;14.70;99.90;;;;;;5032380;28;20517;-76
2022/10/05 09:52:53;;;;;;;3.63;2.08;;;14.80;99.90;;;;;;5025113;28;20033;-76
2022/10/05 09:55:40;;;;;;;3.85;1.95;;;14.90;99.90;;;;;;5027415;28;20037;-76
2022/10/05 09:58:28;;;;;;;8.63;2.30;;;15.10;99.90;;;;;;5027051;28;20033;-76
2022/10/05 10:01:31;;;;;;;5.05;2.03;;;15.10;99.90;;;;;;5027697;28;20380;-77
2022/10/05 10:04:19;;;;;;;4.25;2.15;;;15.40;99.90;;;;;;5025411;28;20588;-76
2022/10/05 10:07:15;;;;;;;5.72;2.20;;;15.20;99.90;;;;;;5027671;28;20479;-76
2022/10/05 10:10:00;;;;;;;5.88;2.50;;;15.30;99.90;;;;;;5033963;28;20030;-75
2022/10/05 10:12:41;;;;;;;6.32;2.25;;;15.30;99.90;;;;;;5031574;28;20045;-76
2022/10/05 10:15:38;;;;;;;4.28;1.80;;;15.50;99.90;;;;;;5025951;28;20103;-74
2022/10/05 10:18:06;;;;;;;4.97;1.95;;;15.60;99.90;;;;;;5024864;28;20033;-75
2022/10/05 10:20:57;;;;;;;5.15;2.10;;;15.60;99.90;;;;;;5034252;28;20021;-76
2022/10/05 10:23:38;;;;;;;5.85;2.00;;;15.90;99.90;;;;;;5033959;28;20061;-76
2022/10/05 10:26:10;;;;;;;4.25;1.85;;;16.00;99.90;;;;;;5028754;28;20563;-76
2022/10/05 10:29:07;;;;;;;4.60;2.03;;;16.20;99.90;;;;;;5024182;28;20033;-76
2022/10/05 10:32:11;;;;;;;3.90;1.92;;;16.30;99.90;;;;;;5027696;28;20489;-77
2022/10/05 10:34:55;;;;;;;3.03;1.53;;;16.40;99.90;;;;;;5027323;28;20050;-75
2022/10/05 10:37:51;;;;;;;3.20;1.92;;;16.50;99.90;;;;;;5025822;28;20794;-75
2022/10/05 10:40:49;;;;;;;3.85;1.98;;;16.50;99.70;;;;;;5024476;28;20095;-75
2022/10/05 10:43:40;;;;;;;3.35;1.80;;;16.70;99.70;;;;;;5030629;28;20026;-75
2022/10/05 10:46:39;;;;;;;4.72;1.75;;;16.90;99.10;;;;;;5032855;28;20108;-75
2022/10/05 10:49:42;;;;;;;3.92;2.00;;;17.00;99.80;;;;;;5030790;28;20040;-75
2022/10/05 10:52:11;;;;;;;3.88;2.10;;;17.00;99.90;;;;;;5023535;28;20038;-75
2022/10/05 10:55:09;;;;;;;3.65;1.83;;;16.90;99.00;;;;;;5023882;28;20462;-75
2022/10/05 10:58:13;;;;;;;4.15;1.75;;;17.00;99.30;;;;;;5023857;28;20037;-75
2022/10/05 11:01:00;;;;;;;6.47;2.42;;;17.10;98.40;;;;;;5023857;28;20037;-75
2022/10/05 11:03:54;;;;;;;4.03;1.98;;;17.40;98.60;;;;;;5024797;28;20029;-75
2022/10/05 11:06:46;;;;;;;5.35;2.20;;;17.70;98.40;;;;;;5024621;28;20036;-75
2022/10/05 11:09:27;;;;;;;6.55;2.30;;;17.80;98.70;;;;;;5024088;28;20025;-75
2022/10/05 11:11:57;;;;;;;4.15;2.00;;;17.80;99.10;;;;;;5024868;28;20141;-75
2022/10/05 11:14:50;;;;;;;5.05;2.05;;;17.60;98.20;;;;;;5024352;28;20116;-75
2022/10/05 11:17:36;;;;;;;5.32;2.00;;;17.40;98.20;;;;;;5036455;28;20058;-75
2022/10/05 11:20:20;;;;;;;4.10;2.22;;;17.50;98.70;;;;;;5024618;28;20040;-75
2022/10/05 11:22:52;;;;;;;4.20;2.60;;;18.00;99.00;;;;;;5024882;28;20100;-75
2022/10/05 11:25:36;;;;;;;5.40;2.22;;;18.10;98.20;;;;;;5023364;28;20061;-74
2022/10/05 11:28:27;;;;;;;5.55;2.22;;;18.20;97.80;;;;;;5023622;28;20057;-75
2022/10/05 11:30:55;;;;;;;12.20;2.70;;;18.30;97.70;;;;;;5033208;28;20064;-76
2022/10/05 11:33:41;;;;;;;3.92;2.15;;;18.10;97.30;;;;;;5023073;28;20100;-76
2022/10/05 11:36:24;;;;;;;5.50;2.42;;;18.30;98.00;;;;;;5022763;28;20069;-75
2022/10/05 11:39:23;;;;;;;4.22;2.35;;;18.40;97.30;;;;;;5021490;28;21013;-76
2022/10/05 11:42:07;;;;;;;6.55;2.45;;;18.30;97.70;;;;;;5027322;28;20033;-75
2022/10/05 11:44:48;;;;;;;;;;;18.50;97.80;;;;;;5023924;28;20033;-75
2022/10/05 11:47:41;;;;;;;4.63;2.60;;;18.60;97.60;;;;;;5021484;28;20363;-75
2022/10/05 11:50:26;;;;;;;4.88;2.85;;;18.90;98.20;;;;;;5023525;28;20057;-75
2022/10/05 11:53:13;;;;;;;5.47;2.90;;;18.60;97.60;;;;;;5028544;28;20041;-74
2022/10/05 11:55:45;;;;;;;4.60;2.40;;;18.90;98.30;;;;;;5022991;28;20131;-75
2022/10/05 11:58:32;;;;;;;5.80;2.60;;;19.10;97.80;;;;;;5029276;28;20109;-75
2022/10/05 12:01:18;;;;;;;4.32;2.75;;;19.20;98.30;;;;;;5025069;28;20029;-75
2022/10/05 12:04:22;;;;;;;7.55;2.97;;;19.20;98.00;;;;;;5024787;28;20033;-76
2022/10/05 12:06:55;;;;;;;6.38;3.25;;;19.10;98.10;;;;;;5027945;28;20033;-76
2022/10/05 12:10:12;;;;;;;7.05;3.00;;;19.40;98.50;;;;;;5025020;28;20419;-75
2022/10/05 12:12:43;;;;;;;4.95;2.30;;;19.30;97.60;;;;;;5021926;28;20444;-77
2022/10/05 12:15:19;;;;;;;4.93;3.17;;;19.30;98.10;;;;;;5021727;28;20037;-76
2022/10/05 12:17:55;;;;;;;9.60;4.65;;;19.10;97.70;;;;;;5021692;28;20033;-76
2022/10/05 12:20:37;;;;;;;6.95;5.03;;;19.10;98.30;;;;;;5020918;28;20029;-76
2022/10/05 12:23:19;;;;;;;8.52;6.05;;;19.20;98.10;;;;;;5026474;28;20060;-76
2022/10/05 12:25:51;;;;;;;12.15;6.60;;;19.20;98.40;;;;;;5021310;28;20061;-76
2022/10/05 12:28:20;;;;;;;10.23;5.53;;;19.50;99.30;;;;;;5022473;28;20044;-76
2022/10/05 12:31:06;;;;;;;10.73;5.13;;;19.70;98.30;;;;;;5021716;28;20029;-76
2022/10/05 12:34:01;;;;;;;8.90;6.15;;;19.70;98.30;;;;;;5021227;28;20032;-76
2022/10/05 12:36:57;;;;;;;6.88;4.90;;;19.90;98.40;;;;;;5020888;28;20056;-76
2022/10/05 12:39:29;;;;;;;7.90;5.40;;;19.80;98.20;;;;;;5022750;28;20438;-77
2022/10/05 12:42:07;;;;;;;8.68;5.68;;;20.20;99.10;;;;;;5027806;28;20108;-76
2022/10/05 12:44:48;;;;;;;8.32;5.22;;;20.40;99.50;;;;;;5022660;28;20083;-77
2022/10/05 12:47:22;;;;;;;11.02;5.70;;;20.50;98.90;;;;;;5029130;28;20079;-76
2022/10/05 12:50:02;;;;;;;11.10;6.38;;;20.60;98.00;;;;;;5029381;28;20036;-76
2022/10/05 12:52:46;;;;;;;11.75;6.25;;;20.40;98.00;;;;;;5027002;28;20034;-77
2022/10/05 12:55:17;;;;;;;10.30;6.43;;;20.60;98.60;;;;;;5027176;28;20068;-76
2022/10/05 12:57:52;;;;;;;9.23;6.18;;;20.90;98.90;;;;;;5023252;28;21541;-76
2022/10/05 13:00:19;;;;;;;13.90;8.02;;;21.10;98.00;;;;;;5022978;28;20033;-75
2022/10/05 13:02:50;;;;;;;10.23;6.97;;;21.20;97.80;;;;;;5026400;28;20037;-75
2022/10/05 13:05:40;;;;;;;13.80;8.88;;;21.10;98.80;;;;;;5023401;28;20115;-76
2022/10/05 13:08:27;;;;;;;13.23;8.15;;;21.10;97.70;;;;;;5029856;28;20040;-78
2022/10/05 13:11:09;;;;;;;14.75;8.35;;;21.20;98.00;;;;;;5021817;28;20569;-77
2022/10/05 13:13:53;;;;;;;14.18;7.90;;;21.20;98.30;;;;;;5026185;28;20037;-77
2022/10/05 13:16:26;;;;;;;12.25;7.65;;;21.10;97.70;;;;;;5034013;28;20029;-78
2022/10/05 13:19:13;;;;;;;15.30;7.90;;;21.10;98.10;;;;;;5024217;28;20036;-79
2022/10/05 13:21:45;;;;;;;14.57;8.15;;;21.10;98.00;;;;;;5022361;28;20025;-77
2022/10/05 13:24:25;;;;;;;11.57;7.65;;;21.20;98.10;;;;;;5026815;28;20065;-78
2022/10/05 13:26:56;;;;;;;13.95;7.55;;;21.20;97.80;;;;;;5022670;28;20037;-77
2022/10/05 13:29:58;;;;;;;11.45;7.63;;;21.20;98.00;;;;;;5025911;28;20033;-77
2022/10/05 13:32:33;;;;;;;11.18;7.85;;;21.20;97.90;;;;;;5023478;28;20087;-78
2022/10/05 13:35:05;;;;;;;15.15;8.18;;;21.20;98.10;;;;;;5023753;28;20033;-77
2022/10/05 13:37:56;;;;;;;15.48;8.50;;;21.20;98.00;;;;;;5022398;28;20033;-77
2022/10/05 13:40:31;;;;;;;11.07;8.00;;;21.20;97.70;;;;;;5023209;28;20036;-77
2022/10/05 13:43:15;;;;;;;13.98;8.13;;;21.10;98.10;;;;;;5021728;28;20032;-78
2022/10/05 13:45:49;;;;;;;14.85;7.95;;;21.10;98.20;;;;;;5022521;28;20079;-78
2022/10/05 13:48:27;;;;;;;11.48;8.05;;;21.10;97.90;;;;;;5022096;28;20606;-77
2022/10/05 13:50:59;;;;;;;11.63;7.55;;;21.20;98.10;;;;;;5022279;28;20570;-77
2022/10/05 13:53:45;;;;;;;12.63;7.78;;;21.20;99.00;;;;;;5027157;28;20033;-77
2022/10/05 13:56:16;;;;;;;13.50;8.50;;;21.30;98.10;;;;;;5023425;28;20130;-77
2022/10/05 13:58:54;;;;;;;12.63;7.68;;;21.40;97.80;;;;;;5023387;28;20622;-77
2022/10/05 14:01:28;;;;;;;12.57;8.15;;;21.20;98.00;;;;;;5022565;28;20029;-77
2022/10/05 14:04:20;;;;;;;11.57;8.07;;;21.40;97.70;;;;;;5027252;28;20029;-77
2022/10/05 14:06:48;;;;;;;11.50;8.38;;;21.40;98.10;;;;;;5021703;28;20179;-77
2022/10/05 14:09:20;;;;;;;9.35;6.82;;;21.40;97.30;;;;;;5022984;28;20025;-78
2022/10/05 14:12:19;;;;;;;17.67;8.38;;;21.40;97.80;;;;;;5023294;28;20032;-78